sensor_id;sensor_type;location;lat;lon;timestamp;P1;durP1;ratioP1;P2;durP2;ratioP2
64029;SDS011;50277;52.064;4.492;2023-08-06T00:00:27;8.35;;;7.55;;
64029;SDS011;50277;52.064;4.492;2023-08-06T00:02:52;9.35;;;7.65;;
64029;SDS011;50277;52.064;4.492;2023-08-06T00:05:18;8.32;;;7.53;;
64029;SDS011;50277;52.064;4.492;2023-08-06T00:07:45;8.65;;;7.80;;
64029;SDS011;50277;52.064;4.492;2023-08-06T00:10:11;8.25;;;7.43;;
64029;SDS011;50277;52.064;4.492;2023-08-06T00:12:37;9.20;;;7.45;;
64029;SDS011;50277;52.064;4.492;2023-08-06T00:15:02;9.45;;;7.53;;
64029;SDS011;50277;52.064;4.492;2023-08-06T00:17:28;8.18;;;7.22;;
64029;SDS011;50277;52.064;4.492;2023-08-06T00:19:53;8.52;;;7.55;;
64029;SDS011;50277;52.064;4.492;2023-08-06T00:22:18;12.73;;;7.70;;
64029;SDS011;50277;52.064;4.492;2023-08-06T00:24:43;8.75;;;7.88;;
64029;SDS011;50277;52.064;4.492;2023-08-06T00:27:09;8.77;;;7.88;;
64029;SDS011;50277;52.064;4.492;2023-08-06T00:29:34;9.38;;;7.88;;
64029;SDS011;50277;52.064;4.492;2023-08-06T00:31:59;12.40;;;8.90;;
64029;SDS011;50277;52.064;4.492;2023-08-06T00:34:25;10.00;;;7.47;;
64029;SDS011;50277;52.064;4.492;2023-08-06T00:36:50;8.43;;;7.63;;
64029;SDS011;50277;52.064;4.492;2023-08-06T00:39:15;8.65;;;7.82;;
64029;SDS011;50277;52.064;4.492;2023-08-06T00:41:41;9.85;;;8.30;;
64029;SDS011;50277;52.064;4.492;2023-08-06T00:44:06;8.05;;;7.35;;
64029;SDS011;50277;52.064;4.492;2023-08-06T00:46:32;6.95;;;6.35;;
64029;SDS011;50277;52.064;4.492;2023-08-06T00:48:57;9.30;;;8.40;;
64029;SDS011;50277;52.064;4.492;2023-08-06T00:51:23;8.55;;;7.75;;
64029;SDS011;50277;52.064;4.492;2023-08-06T00:53:49;7.72;;;6.97;;
64029;SDS011;50277;52.064;4.492;2023-08-06T00:56:15;8.32;;;7.22;;
64029;SDS011;50277;52.064;4.492;2023-08-06T00:58:40;8.75;;;7.95;;
64029;SDS011;50277;52.064;4.492;2023-08-06T01:01:06;8.27;;;7.55;;
64029;SDS011;50277;52.064;4.492;2023-08-06T01:03:31;7.80;;;7.10;;
64029;SDS011;50277;52.064;4.492;2023-08-06T01:05:57;8.20;;;7.40;;
64029;SDS011;50277;52.064;4.492;2023-08-06T01:13:54;6.05;;;5.55;;
64029;SDS011;50277;52.064;4.492;2023-08-06T01:16:27;9.05;;;6.78;;
64029;SDS011;50277;52.064;4.492;2023-08-06T01:18:53;6.60;;;6.10;;
64029;SDS011;50277;52.064;4.492;2023-08-06T01:21:18;7.95;;;6.60;;
64029;SDS011;50277;52.064;4.492;2023-08-06T01:23:44;7.60;;;6.80;;
64029;SDS011;50277;52.064;4.492;2023-08-06T01:28:52;7.20;;;6.13;;
64029;SDS011;50277;52.064;4.492;2023-08-06T01:31:27;5.63;;;5.13;;
64029;SDS011;50277;52.064;4.492;2023-08-06T01:33:56;5.60;;;5.10;;
64029;SDS011;50277;52.064;4.492;2023-08-06T01:36:21;5.15;;;4.72;;
64029;SDS011;50277;52.064;4.492;2023-08-06T01:38:47;6.72;;;6.13;;
64029;SDS011;50277;52.064;4.492;2023-08-06T01:41:12;7.20;;;5.85;;
64029;SDS011;50277;52.064;4.492;2023-08-06T01:43:38;6.00;;;5.50;;
64029;SDS011;50277;52.064;4.492;2023-08-06T01:46:03;6.80;;;6.22;;
64029;SDS011;50277;52.064;4.492;2023-08-06T01:48:28;5.47;;;4.88;;
64029;SDS011;50277;52.064;4.492;2023-08-06T01:50:54;5.55;;;5.15;;
64029;SDS011;50277;52.064;4.492;2023-08-06T01:53:19;5.15;;;4.75;;
64029;SDS011;50277;52.064;4.492;2023-08-06T01:55:48;4.78;;;4.38;;
64029;SDS011;50277;52.064;4.492;2023-08-06T01:58:13;4.45;;;4.05;;
64029;SDS011;50277;52.064;4.492;2023-08-06T02:00:39;4.35;;;4.05;;
64029;SDS011;50277;52.064;4.492;2023-08-06T02:03:05;4.32;;;4.00;;
64029;SDS011;50277;52.064;4.492;2023-08-06T02:05:30;5.03;;;4.63;;
64029;SDS011;50277;52.064;4.492;2023-08-06T02:07:56;5.30;;;4.90;;
64029;SDS011;50277;52.064;4.492;2023-08-06T02:10:21;4.72;;;4.43;;
64029;SDS011;50277;52.064;4.492;2023-08-06T02:12:46;4.13;;;3.83;;
64029;SDS011;50277;52.064;4.492;2023-08-06T02:15:12;4.15;;;3.85;;
64029;SDS011;50277;52.064;4.492;2023-08-06T02:17:37;4.20;;;3.90;;
64029;SDS011;50277;52.064;4.492;2023-08-06T02:20:02;5.25;;;4.80;;
64029;SDS011;50277;52.064;4.492;2023-08-06T02:22:28;5.07;;;4.57;;
64029;SDS011;50277;52.064;4.492;2023-08-06T02:24:53;5.75;;;4.50;;
64029;SDS011;50277;52.064;4.492;2023-08-06T02:27:18;5.63;;;5.05;;
64029;SDS011;50277;52.064;4.492;2023-08-06T02:29:44;5.93;;;4.90;;
64029;SDS011;50277;52.064;4.492;2023-08-06T02:32:09;5.45;;;4.95;;
64029;SDS011;50277;52.064;4.492;2023-08-06T02:34:35;5.00;;;4.60;;
64029;SDS011;50277;52.064;4.492;2023-08-06T02:37:00;4.85;;;4.45;;
64029;SDS011;50277;52.064;4.492;2023-08-06T02:39:25;4.90;;;4.50;;
64029;SDS011;50277;52.064;4.492;2023-08-06T02:41:51;4.40;;;4.00;;
64029;SDS011;50277;52.064;4.492;2023-08-06T02:44:16;3.95;;;3.60;;
64029;SDS011;50277;52.064;4.492;2023-08-06T02:46:41;3.40;;;3.15;;
64029;SDS011;50277;52.064;4.492;2023-08-06T02:49:06;3.08;;;2.88;;
64029;SDS011;50277;52.064;4.492;2023-08-06T02:51:32;3.10;;;2.90;;
64029;SDS011;50277;52.064;4.492;2023-08-06T02:53:57;2.80;;;2.60;;
64029;SDS011;50277;52.064;4.492;2023-08-06T02:56:22;3.38;;;2.60;;
64029;SDS011;50277;52.064;4.492;2023-08-06T02:58:48;3.15;;;2.85;;
64029;SDS011;50277;52.064;4.492;2023-08-06T03:01:13;2.63;;;2.42;;
64029;SDS011;50277;52.064;4.492;2023-08-06T03:03:39;2.55;;;2.35;;
64029;SDS011;50277;52.064;4.492;2023-08-06T03:06:04;2.60;;;2.40;;
64029;SDS011;50277;52.064;4.492;2023-08-06T03:08:29;2.55;;;2.35;;
64029;SDS011;50277;52.064;4.492;2023-08-06T03:10:55;2.45;;;2.28;;
64029;SDS011;50277;52.064;4.492;2023-08-06T03:13:20;2.35;;;2.13;;
64029;SDS011;50277;52.064;4.492;2023-08-06T03:16:19;1.98;;;1.88;;
64029;SDS011;50277;52.064;4.492;2023-08-06T03:18:37;2.10;;;2.00;;
64029;SDS011;50277;52.064;4.492;2023-08-06T03:21:03;7.93;;;2.80;;
64029;SDS011;50277;52.064;4.492;2023-08-06T03:23:28;4.63;;;2.80;;
64029;SDS011;50277;52.064;4.492;2023-08-06T03:25:54;3.88;;;3.58;;
64029;SDS011;50277;52.064;4.492;2023-08-06T03:28:19;4.68;;;4.28;;
64029;SDS011;50277;52.064;4.492;2023-08-06T03:30:45;4.80;;;4.40;;
64029;SDS011;50277;52.064;4.492;2023-08-06T03:33:10;6.00;;;5.50;;
64029;SDS011;50277;52.064;4.492;2023-08-06T03:35:35;6.50;;;5.90;;
64029;SDS011;50277;52.064;4.492;2023-08-06T03:38:01;6.88;;;6.32;;
64029;SDS011;50277;52.064;4.492;2023-08-06T03:40:26;9.95;;;7.68;;
64029;SDS011;50277;52.064;4.492;2023-08-06T03:42:51;9.00;;;8.20;;
64029;SDS011;50277;52.064;4.492;2023-08-06T03:45:17;10.57;;;8.45;;
64029;SDS011;50277;52.064;4.492;2023-08-06T03:47:42;9.93;;;8.93;;
64029;SDS011;50277;52.064;4.492;2023-08-06T03:50:07;8.75;;;6.88;;
64029;SDS011;50277;52.064;4.492;2023-08-06T03:52:33;7.45;;;4.82;;
64029;SDS011;50277;52.064;4.492;2023-08-06T03:54:58;4.30;;;3.80;;
64029;SDS011;50277;52.064;4.492;2023-08-06T03:57:23;5.32;;;3.55;;
64029;SDS011;50277;52.064;4.492;2023-08-06T03:59:49;2.95;;;2.65;;
64029;SDS011;50277;52.064;4.492;2023-08-06T04:02:14;6.78;;;3.10;;
64029;SDS011;50277;52.064;4.492;2023-08-06T04:04:39;2.85;;;2.50;;
64029;SDS011;50277;52.064;4.492;2023-08-06T04:07:05;5.68;;;2.90;;
64029;SDS011;50277;52.064;4.492;2023-08-06T04:09:30;7.78;;;2.90;;
64029;SDS011;50277;52.064;4.492;2023-08-06T04:11:55;4.03;;;3.08;;
64029;SDS011;50277;52.064;4.492;2023-08-06T04:14:21;7.13;;;2.65;;
64029;SDS011;50277;52.064;4.492;2023-08-06T04:16:46;2.97;;;2.72;;
64029;SDS011;50277;52.064;4.492;2023-08-06T04:19:12;6.05;;;3.03;;
64029;SDS011;50277;52.064;4.492;2023-08-06T04:21:37;3.03;;;2.60;;
64029;SDS011;50277;52.064;4.492;2023-08-06T04:24:02;6.18;;;2.60;;
64029;SDS011;50277;52.064;4.492;2023-08-06T04:26:28;5.78;;;3.05;;
64029;SDS011;50277;52.064;4.492;2023-08-06T04:28:53;4.40;;;2.67;;
64029;SDS011;50277;52.064;4.492;2023-08-06T04:31:19;7.35;;;2.95;;
64029;SDS011;50277;52.064;4.492;2023-08-06T04:33:44;3.28;;;2.83;;
64029;SDS011;50277;52.064;4.492;2023-08-06T04:36:09;4.38;;;3.53;;
64029;SDS011;50277;52.064;4.492;2023-08-06T04:38:35;7.15;;;3.35;;
64029;SDS011;50277;52.064;4.492;2023-08-06T04:41:01;4.90;;;3.00;;
64029;SDS011;50277;52.064;4.492;2023-08-06T04:43:28;6.20;;;3.13;;
64029;SDS011;50277;52.064;4.492;2023-08-06T04:45:54;6.00;;;2.88;;
64029;SDS011;50277;52.064;4.492;2023-08-06T04:48:19;3.90;;;3.28;;
64029;SDS011;50277;52.064;4.492;2023-08-06T04:50:45;6.97;;;3.22;;
64029;SDS011;50277;52.064;4.492;2023-08-06T04:53:11;6.57;;;3.40;;
64029;SDS011;50277;52.064;4.492;2023-08-06T04:55:37;6.93;;;3.85;;
64029;SDS011;50277;52.064;4.492;2023-08-06T04:58:02;11.02;;;4.43;;
64029;SDS011;50277;52.064;4.492;2023-08-06T05:00:27;5.25;;;3.85;;
64029;SDS011;50277;52.064;4.492;2023-08-06T05:02:53;6.47;;;3.42;;
64029;SDS011;50277;52.064;4.492;2023-08-06T05:05:18;5.25;;;3.85;;
64029;SDS011;50277;52.064;4.492;2023-08-06T05:07:45;5.70;;;4.13;;
64029;SDS011;50277;52.064;4.492;2023-08-06T05:10:13;7.63;;;3.78;;
64029;SDS011;50277;52.064;4.492;2023-08-06T05:12:38;4.95;;;3.58;;
64029;SDS011;50277;52.064;4.492;2023-08-06T05:15:04;4.50;;;3.63;;
64029;SDS011;50277;52.064;4.492;2023-08-06T05:17:29;5.80;;;3.75;;
64029;SDS011;50277;52.064;4.492;2023-08-06T05:19:54;6.93;;;3.70;;
64029;SDS011;50277;52.064;4.492;2023-08-06T05:22:20;7.85;;;3.72;;
64029;SDS011;50277;52.064;4.492;2023-08-06T05:24:45;7.20;;;4.20;;
64029;SDS011;50277;52.064;4.492;2023-08-06T05:27:10;8.05;;;3.78;;
64029;SDS011;50277;52.064;4.492;2023-08-06T05:29:36;9.57;;;4.05;;
64029;SDS011;50277;52.064;4.492;2023-08-06T05:32:01;6.57;;;3.88;;
64029;SDS011;50277;52.064;4.492;2023-08-06T05:34:26;7.78;;;3.92;;
64029;SDS011;50277;52.064;4.492;2023-08-06T05:36:52;7.07;;;3.55;;
64029;SDS011;50277;52.064;4.492;2023-08-06T05:39:17;9.25;;;3.95;;
64029;SDS011;50277;52.064;4.492;2023-08-06T05:41:43;8.18;;;4.03;;
64029;SDS011;50277;52.064;4.492;2023-08-06T05:44:08;9.85;;;4.35;;
64029;SDS011;50277;52.064;4.492;2023-08-06T05:46:33;14.05;;;4.07;;
64029;SDS011;50277;52.064;4.492;2023-08-06T05:48:59;8.43;;;3.80;;
64029;SDS011;50277;52.064;4.492;2023-08-06T05:51:25;9.48;;;3.88;;
64029;SDS011;50277;52.064;4.492;2023-08-06T05:53:51;6.95;;;3.55;;
64029;SDS011;50277;52.064;4.492;2023-08-06T05:56:16;5.53;;;3.08;;
64029;SDS011;50277;52.064;4.492;2023-08-06T05:58:42;5.60;;;2.90;;
64029;SDS011;50277;52.064;4.492;2023-08-06T06:01:07;7.28;;;3.03;;
64029;SDS011;50277;52.064;4.492;2023-08-06T06:03:32;6.03;;;3.33;;
64029;SDS011;50277;52.064;4.492;2023-08-06T06:05:58;7.93;;;2.63;;
64029;SDS011;50277;52.064;4.492;2023-08-06T06:08:25;3.67;;;2.27;;
64029;SDS011;50277;52.064;4.492;2023-08-06T06:10:51;7.50;;;2.88;;
64029;SDS011;50277;52.064;4.492;2023-08-06T06:13:16;4.43;;;2.42;;
64029;SDS011;50277;52.064;4.492;2023-08-06T06:15:41;5.35;;;2.47;;
64029;SDS011;50277;52.064;4.492;2023-08-06T06:18:07;6.65;;;2.58;;
64029;SDS011;50277;52.064;4.492;2023-08-06T06:20:32;4.38;;;2.22;;
64029;SDS011;50277;52.064;4.492;2023-08-06T06:22:58;8.27;;;2.33;;
64029;SDS011;50277;52.064;4.492;2023-08-06T06:25:23;4.72;;;2.00;;
64029;SDS011;50277;52.064;4.492;2023-08-06T06:27:49;8.55;;;2.00;;
64029;SDS011;50277;52.064;4.492;2023-08-06T06:30:14;4.50;;;2.50;;
64029;SDS011;50277;52.064;4.492;2023-08-06T06:32:39;5.65;;;2.10;;
64029;SDS011;50277;52.064;4.492;2023-08-06T06:35:05;7.15;;;1.55;;
64029;SDS011;50277;52.064;4.492;2023-08-06T06:37:31;4.35;;;1.92;;
64029;SDS011;50277;52.064;4.492;2023-08-06T06:39:56;3.55;;;1.80;;
64029;SDS011;50277;52.064;4.492;2023-08-06T06:42:22;3.67;;;1.50;;
64029;SDS011;50277;52.064;4.492;2023-08-06T06:44:48;3.85;;;1.75;;
64029;SDS011;50277;52.064;4.492;2023-08-06T06:47:13;6.30;;;1.85;;
64029;SDS011;50277;52.064;4.492;2023-08-06T06:49:38;4.55;;;1.42;;
64029;SDS011;50277;52.064;4.492;2023-08-06T06:52:04;2.55;;;1.60;;
64029;SDS011;50277;52.064;4.492;2023-08-06T06:54:29;2.33;;;1.45;;
64029;SDS011;50277;52.064;4.492;2023-08-06T06:56:55;6.68;;;1.60;;
64029;SDS011;50277;52.064;4.492;2023-08-06T06:59:20;7.43;;;1.95;;
64029;SDS011;50277;52.064;4.492;2023-08-06T07:01:46;3.50;;;1.80;;
64029;SDS011;50277;52.064;4.492;2023-08-06T07:04:11;5.57;;;1.83;;
64029;SDS011;50277;52.064;4.492;2023-08-06T07:06:36;2.25;;;1.60;;
64029;SDS011;50277;52.064;4.492;2023-08-06T07:09:01;4.57;;;1.85;;
64029;SDS011;50277;52.064;4.492;2023-08-06T07:11:27;2.67;;;1.90;;
64029;SDS011;50277;52.064;4.492;2023-08-06T07:13:56;4.53;;;1.90;;
64029;SDS011;50277;52.064;4.492;2023-08-06T07:16:23;4.10;;;1.95;;
64029;SDS011;50277;52.064;4.492;2023-08-06T07:18:48;2.92;;;1.75;;
64029;SDS011;50277;52.064;4.492;2023-08-06T07:21:13;4.00;;;2.30;;
64029;SDS011;50277;52.064;4.492;2023-08-06T07:23:39;4.80;;;2.03;;
64029;SDS011;50277;52.064;4.492;2023-08-06T07:26:04;5.13;;;2.35;;
64029;SDS011;50277;52.064;4.492;2023-08-06T07:28:29;5.05;;;2.28;;
64029;SDS011;50277;52.064;4.492;2023-08-06T07:30:55;7.20;;;3.03;;
64029;SDS011;50277;52.064;4.492;2023-08-06T07:33:20;7.60;;;2.35;;
64029;SDS011;50277;52.064;4.492;2023-08-06T07:35:45;3.08;;;2.67;;
64029;SDS011;50277;52.064;4.492;2023-08-06T07:38:11;13.35;;;2.85;;
64029;SDS011;50277;52.064;4.492;2023-08-06T07:40:36;3.75;;;2.45;;
64029;SDS011;50277;52.064;4.492;2023-08-06T07:43:02;9.32;;;3.08;;
64029;SDS011;50277;52.064;4.492;2023-08-06T07:45:28;4.85;;;2.67;;
64029;SDS011;50277;52.064;4.492;2023-08-06T07:47:53;4.70;;;2.63;;
64029;SDS011;50277;52.064;4.492;2023-08-06T07:50:18;5.95;;;2.60;;
64029;SDS011;50277;52.064;4.492;2023-08-06T07:52:44;3.28;;;2.22;;
64029;SDS011;50277;52.064;4.492;2023-08-06T07:55:09;3.40;;;2.40;;
64029;SDS011;50277;52.064;4.492;2023-08-06T07:57:34;5.45;;;2.60;;
64029;SDS011;50277;52.064;4.492;2023-08-06T08:00:00;3.60;;;2.30;;
64029;SDS011;50277;52.064;4.492;2023-08-06T08:02:26;4.55;;;2.40;;
64029;SDS011;50277;52.064;4.492;2023-08-06T08:04:51;8.55;;;2.55;;
64029;SDS011;50277;52.064;4.492;2023-08-06T08:07:16;3.55;;;2.15;;
64029;SDS011;50277;52.064;4.492;2023-08-06T08:09:42;3.35;;;2.30;;
64029;SDS011;50277;52.064;4.492;2023-08-06T08:12:07;3.92;;;2.75;;
64029;SDS011;50277;52.064;4.492;2023-08-06T08:14:33;5.07;;;2.65;;
64029;SDS011;50277;52.064;4.492;2023-08-06T08:17:02;5.95;;;2.33;;
64029;SDS011;50277;52.064;4.492;2023-08-06T08:19:29;5.82;;;3.13;;
64029;SDS011;50277;52.064;4.492;2023-08-06T08:21:54;4.55;;;2.20;;
64029;SDS011;50277;52.064;4.492;2023-08-06T08:24:20;3.35;;;2.05;;
64029;SDS011;50277;52.064;4.492;2023-08-06T08:26:48;5.90;;;2.15;;
64029;SDS011;50277;52.064;4.492;2023-08-06T08:29:14;2.10;;;1.90;;
64029;SDS011;50277;52.064;4.492;2023-08-06T08:31:39;2.10;;;1.83;;
64029;SDS011;50277;52.064;4.492;2023-08-06T08:34:05;5.10;;;2.13;;
64029;SDS011;50277;52.064;4.492;2023-08-06T08:36:31;3.50;;;1.92;;
64029;SDS011;50277;52.064;4.492;2023-08-06T08:38:56;4.82;;;2.90;;
64029;SDS011;50277;52.064;4.492;2023-08-06T08:41:21;5.20;;;2.60;;
64029;SDS011;50277;52.064;4.492;2023-08-06T08:43:47;14.15;;;2.75;;
64029;SDS011;50277;52.064;4.492;2023-08-06T08:46:16;4.57;;;1.92;;
64029;SDS011;50277;52.064;4.492;2023-08-06T08:48:42;5.28;;;2.72;;
64029;SDS011;50277;52.064;4.492;2023-08-06T08:51:08;2.30;;;1.85;;
64029;SDS011;50277;52.064;4.492;2023-08-06T08:53:34;4.60;;;2.00;;
64029;SDS011;50277;52.064;4.492;2023-08-06T08:56:00;4.45;;;2.05;;
64029;SDS011;50277;52.064;4.492;2023-08-06T08:58:25;3.20;;;2.15;;
64029;SDS011;50277;52.064;4.492;2023-08-06T09:00:51;5.28;;;2.33;;
64029;SDS011;50277;52.064;4.492;2023-08-06T09:03:16;6.93;;;2.15;;
64029;SDS011;50277;52.064;4.492;2023-08-06T09:05:43;3.92;;;2.20;;
64029;SDS011;50277;52.064;4.492;2023-08-06T09:08:11;2.85;;;2.00;;
64029;SDS011;50277;52.064;4.492;2023-08-06T09:10:37;3.35;;;2.00;;
64029;SDS011;50277;52.064;4.492;2023-08-06T09:13:04;3.20;;;2.35;;
64029;SDS011;50277;52.064;4.492;2023-08-06T09:15:29;4.60;;;2.30;;
64029;SDS011;50277;52.064;4.492;2023-08-06T09:17:55;3.08;;;1.88;;
64029;SDS011;50277;52.064;4.492;2023-08-06T09:20:21;2.00;;;1.80;;
64029;SDS011;50277;52.064;4.492;2023-08-06T09:22:46;2.40;;;1.80;;
64029;SDS011;50277;52.064;4.492;2023-08-06T09:25:22;2.25;;;1.90;;
64029;SDS011;50277;52.064;4.492;2023-08-06T09:27:51;2.30;;;1.92;;
64029;SDS011;50277;52.064;4.492;2023-08-06T09:30:30;4.88;;;2.40;;
64029;SDS011;50277;52.064;4.492;2023-08-06T09:32:56;2.85;;;1.95;;
64029;SDS011;50277;52.064;4.492;2023-08-06T09:35:21;3.22;;;2.40;;
64029;SDS011;50277;52.064;4.492;2023-08-06T09:37:47;4.53;;;2.13;;
64029;SDS011;50277;52.064;4.492;2023-08-06T09:40:31;2.65;;;2.42;;
64029;SDS011;50277;52.064;4.492;2023-08-06T09:42:57;3.65;;;2.10;;
64029;SDS011;50277;52.064;4.492;2023-08-06T09:45:23;2.92;;;2.03;;
64029;SDS011;50277;52.064;4.492;2023-08-06T09:47:49;1.55;;;1.45;;
64029;SDS011;50277;52.064;4.492;2023-08-06T09:50:18;3.97;;;2.30;;
64029;SDS011;50277;52.064;4.492;2023-08-06T09:52:44;2.63;;;1.90;;
64029;SDS011;50277;52.064;4.492;2023-08-06T09:55:10;4.85;;;2.08;;
64029;SDS011;50277;52.064;4.492;2023-08-06T09:57:37;3.63;;;1.88;;
64029;SDS011;50277;52.064;4.492;2023-08-06T10:00:02;3.42;;;2.67;;
64029;SDS011;50277;52.064;4.492;2023-08-06T10:02:28;4.55;;;2.08;;
64029;SDS011;50277;52.064;4.492;2023-08-06T10:04:53;3.45;;;2.25;;
64029;SDS011;50277;52.064;4.492;2023-08-06T10:07:20;3.08;;;1.83;;
64029;SDS011;50277;52.064;4.492;2023-08-06T10:09:47;6.72;;;2.80;;
64029;SDS011;50277;52.064;4.492;2023-08-06T10:12:13;4.18;;;2.03;;
64029;SDS011;50277;52.064;4.492;2023-08-06T10:14:38;3.53;;;2.13;;
64029;SDS011;50277;52.064;4.492;2023-08-06T10:17:04;3.30;;;2.30;;
64029;SDS011;50277;52.064;4.492;2023-08-06T10:19:30;4.18;;;2.10;;
64029;SDS011;50277;52.064;4.492;2023-08-06T10:22:12;2.42;;;1.83;;
64029;SDS011;50277;52.064;4.492;2023-08-06T10:24:51;4.40;;;2.13;;
64029;SDS011;50277;52.064;4.492;2023-08-06T10:27:30;2.40;;;1.60;;
64029;SDS011;50277;52.064;4.492;2023-08-06T10:30:20;6.35;;;2.33;;
64029;SDS011;50277;52.064;4.492;2023-08-06T10:32:54;1.95;;;1.75;;
64029;SDS011;50277;52.064;4.492;2023-08-06T10:35:34;3.63;;;1.88;;
64029;SDS011;50277;52.064;4.492;2023-08-06T10:38:11;3.15;;;1.60;;
64029;SDS011;50277;52.064;4.492;2023-08-06T10:40:49;2.15;;;1.75;;
64029;SDS011;50277;52.064;4.492;2023-08-06T10:43:33;3.97;;;1.88;;
64029;SDS011;50277;52.064;4.492;2023-08-06T10:46:09;5.13;;;2.40;;
64029;SDS011;50277;52.064;4.492;2023-08-06T10:48:38;4.78;;;1.80;;
64029;SDS011;50277;52.064;4.492;2023-08-06T10:51:09;4.55;;;1.90;;
64029;SDS011;50277;52.064;4.492;2023-08-06T10:53:35;2.05;;;1.75;;
64029;SDS011;50277;52.064;4.492;2023-08-06T10:56:01;4.65;;;2.08;;
64029;SDS011;50277;52.064;4.492;2023-08-06T10:58:33;3.33;;;2.00;;
64029;SDS011;50277;52.064;4.492;2023-08-06T11:00:59;3.63;;;1.92;;
64029;SDS011;50277;52.064;4.492;2023-08-06T11:03:26;2.53;;;1.95;;
64029;SDS011;50277;52.064;4.492;2023-08-06T11:05:52;2.58;;;2.30;;
64029;SDS011;50277;52.064;4.492;2023-08-06T11:08:25;3.50;;;2.67;;
64029;SDS011;50277;52.064;4.492;2023-08-06T11:10:51;2.47;;;1.75;;
64029;SDS011;50277;52.064;4.492;2023-08-06T11:13:16;2.60;;;1.83;;
64029;SDS011;50277;52.064;4.492;2023-08-06T11:15:43;3.63;;;2.30;;
64029;SDS011;50277;52.064;4.492;2023-08-06T11:18:09;4.30;;;2.10;;
64029;SDS011;50277;52.064;4.492;2023-08-06T11:20:35;2.20;;;1.90;;
64029;SDS011;50277;52.064;4.492;2023-08-06T11:23:00;2.50;;;1.73;;
64029;SDS011;50277;52.064;4.492;2023-08-06T11:25:25;2.28;;;1.45;;
64029;SDS011;50277;52.064;4.492;2023-08-06T11:27:51;1.85;;;1.40;;
64029;SDS011;50277;52.064;4.492;2023-08-06T11:30:16;2.33;;;1.50;;
64029;SDS011;50277;52.064;4.492;2023-08-06T11:32:44;1.42;;;1.35;;
64029;SDS011;50277;52.064;4.492;2023-08-06T11:35:12;2.05;;;1.33;;
64029;SDS011;50277;52.064;4.492;2023-08-06T11:37:38;2.00;;;1.55;;
64029;SDS011;50277;52.064;4.492;2023-08-06T11:40:07;2.25;;;2.03;;
64029;SDS011;50277;52.064;4.492;2023-08-06T11:42:33;1.80;;;1.52;;
64029;SDS011;50277;52.064;4.492;2023-08-06T11:45:00;1.83;;;1.67;;
64029;SDS011;50277;52.064;4.492;2023-08-06T11:47:27;1.52;;;1.42;;
64029;SDS011;50277;52.064;4.492;2023-08-06T11:49:52;1.50;;;1.40;;
64029;SDS011;50277;52.064;4.492;2023-08-06T11:52:21;3.15;;;1.40;;
64029;SDS011;50277;52.064;4.492;2023-08-06T11:55:00;2.50;;;1.30;;
64029;SDS011;50277;52.064;4.492;2023-08-06T11:57:30;2.03;;;1.63;;
64029;SDS011;50277;52.064;4.492;2023-08-06T12:02:32;3.30;;;1.30;;
64029;SDS011;50277;52.064;4.492;2023-08-06T12:05:09;2.28;;;1.15;;
64029;SDS011;50277;52.064;4.492;2023-08-06T12:07:37;3.33;;;1.42;;
64029;SDS011;50277;52.064;4.492;2023-08-06T12:10:04;3.00;;;1.00;;
64029;SDS011;50277;52.064;4.492;2023-08-06T12:12:29;1.85;;;1.42;;
64029;SDS011;50277;52.064;4.492;2023-08-06T12:14:55;3.15;;;1.20;;
64029;SDS011;50277;52.064;4.492;2023-08-06T12:17:21;1.75;;;1.10;;
64029;SDS011;50277;52.064;4.492;2023-08-06T12:19:46;1.95;;;1.02;;
64029;SDS011;50277;52.064;4.492;2023-08-06T12:22:12;2.08;;;1.17;;
64029;SDS011;50277;52.064;4.492;2023-08-06T12:24:39;7.53;;;1.60;;
64029;SDS011;50277;52.064;4.492;2023-08-06T12:27:05;5.50;;;1.45;;
64029;SDS011;50277;52.064;4.492;2023-08-06T12:29:30;1.83;;;1.40;;
64029;SDS011;50277;52.064;4.492;2023-08-06T12:31:56;2.67;;;1.45;;
64029;SDS011;50277;52.064;4.492;2023-08-06T12:34:21;6.10;;;1.50;;
64029;SDS011;50277;52.064;4.492;2023-08-06T12:36:47;4.18;;;1.40;;
64029;SDS011;50277;52.064;4.492;2023-08-06T12:39:12;2.65;;;1.05;;
64029;SDS011;50277;52.064;4.492;2023-08-06T12:41:38;2.20;;;1.20;;
64029;SDS011;50277;52.064;4.492;2023-08-06T12:44:03;0.95;;;0.80;;
64029;SDS011;50277;52.064;4.492;2023-08-06T12:46:28;1.55;;;1.00;;
64029;SDS011;50277;52.064;4.492;2023-08-06T12:48:54;1.55;;;1.00;;
64029;SDS011;50277;52.064;4.492;2023-08-06T12:51:19;1.48;;;1.13;;
64029;SDS011;50277;52.064;4.492;2023-08-06T12:53:44;2.20;;;1.08;;
64029;SDS011;50277;52.064;4.492;2023-08-06T12:56:10;1.38;;;0.95;;
64029;SDS011;50277;52.064;4.492;2023-08-06T12:58:35;4.25;;;1.30;;
64029;SDS011;50277;52.064;4.492;2023-08-06T13:01:00;2.00;;;0.90;;
64029;SDS011;50277;52.064;4.492;2023-08-06T13:03:26;1.52;;;1.00;;
64029;SDS011;50277;52.064;4.492;2023-08-06T13:05:51;0.70;;;0.70;;
64029;SDS011;50277;52.064;4.492;2023-08-06T13:08:17;5.38;;;1.10;;
64029;SDS011;50277;52.064;4.492;2023-08-06T13:10:42;1.77;;;1.10;;
64029;SDS011;50277;52.064;4.492;2023-08-06T13:13:07;4.05;;;1.20;;
64029;SDS011;50277;52.064;4.492;2023-08-06T13:15:35;6.85;;;1.10;;
64029;SDS011;50277;52.064;4.492;2023-08-06T13:18:00;1.77;;;1.10;;
64029;SDS011;50277;52.064;4.492;2023-08-06T13:20:25;3.05;;;1.20;;
64029;SDS011;50277;52.064;4.492;2023-08-06T13:22:51;1.17;;;1.08;;
64029;SDS011;50277;52.064;4.492;2023-08-06T13:25:18;0.82;;;0.73;;
64029;SDS011;50277;52.064;4.492;2023-08-06T13:27:44;1.45;;;1.10;;
64029;SDS011;50277;52.064;4.492;2023-08-06T13:30:10;7.40;;;2.33;;
64029;SDS011;50277;52.064;4.492;2023-08-06T13:32:36;7.10;;;2.28;;
64029;SDS011;50277;52.064;4.492;2023-08-06T13:35:02;11.13;;;2.55;;
64029;SDS011;50277;52.064;4.492;2023-08-06T13:37:29;10.50;;;2.35;;
64029;SDS011;50277;52.064;4.492;2023-08-06T13:39:54;9.68;;;2.35;;
64029;SDS011;50277;52.064;4.492;2023-08-06T13:42:19;16.95;;;2.63;;
64029;SDS011;50277;52.064;4.492;2023-08-06T13:44:45;10.63;;;2.40;;
64029;SDS011;50277;52.064;4.492;2023-08-06T13:47:10;7.63;;;2.38;;
64029;SDS011;50277;52.064;4.492;2023-08-06T13:49:35;7.97;;;1.90;;
64029;SDS011;50277;52.064;4.492;2023-08-06T13:52:01;10.50;;;2.55;;
64029;SDS011;50277;52.064;4.492;2023-08-06T13:54:26;8.27;;;1.95;;
64029;SDS011;50277;52.064;4.492;2023-08-06T13:56:51;7.13;;;1.65;;
64029;SDS011;50277;52.064;4.492;2023-08-06T13:59:18;5.40;;;1.60;;
64029;SDS011;50277;52.064;4.492;2023-08-06T14:01:44;9.10;;;2.08;;
64029;SDS011;50277;52.064;4.492;2023-08-06T14:04:10;3.95;;;1.27;;
64029;SDS011;50277;52.064;4.492;2023-08-06T14:06:35;6.80;;;2.17;;
64029;SDS011;50277;52.064;4.492;2023-08-06T14:09:01;7.70;;;1.92;;
64029;SDS011;50277;52.064;4.492;2023-08-06T14:11:26;10.20;;;2.22;;
64029;SDS011;50277;52.064;4.492;2023-08-06T14:13:52;3.70;;;1.30;;
64029;SDS011;50277;52.064;4.492;2023-08-06T14:16:17;12.00;;;2.60;;
64029;SDS011;50277;52.064;4.492;2023-08-06T14:18:42;9.00;;;2.22;;
64029;SDS011;50277;52.064;4.492;2023-08-06T14:21:08;7.32;;;2.00;;
64029;SDS011;50277;52.064;4.492;2023-08-06T14:23:33;7.88;;;2.20;;
64029;SDS011;50277;52.064;4.492;2023-08-06T14:25:59;10.20;;;2.08;;
64029;SDS011;50277;52.064;4.492;2023-08-06T14:28:24;6.50;;;1.80;;
64029;SDS011;50277;52.064;4.492;2023-08-06T14:30:49;11.98;;;2.47;;
64029;SDS011;50277;52.064;4.492;2023-08-06T14:33:15;7.30;;;1.95;;
64029;SDS011;50277;52.064;4.492;2023-08-06T14:35:40;10.07;;;2.67;;
64029;SDS011;50277;52.064;4.492;2023-08-06T14:38:05;7.63;;;2.03;;
64029;SDS011;50277;52.064;4.492;2023-08-06T14:40:31;8.57;;;1.92;;
64029;SDS011;50277;52.064;4.492;2023-08-06T14:43:00;9.82;;;1.63;;
64029;SDS011;50277;52.064;4.492;2023-08-06T14:45:26;8.98;;;1.85;;
64029;SDS011;50277;52.064;4.492;2023-08-06T14:47:52;6.25;;;1.73;;
64029;SDS011;50277;52.064;4.492;2023-08-06T14:50:17;7.95;;;1.70;;
64029;SDS011;50277;52.064;4.492;2023-08-06T14:52:42;12.77;;;1.95;;